Lac Manouane East, Quebec

Past 24 Hour Conditions

Date / Time
(EST)
Conditions Temp
(°C)
Humidity
(%)
Dew Point
(°C)
Wind
(km/h)
Pressure
(kPa)
Vis
(km)
Wind Chill
27 November 2014
22:00 N/A -21   84 -23 WNW 6 N/A N/A -26
21:00 N/A -20 84 -22 W 4 N/A N/A -23
20:00 N/A -20 84 -22 W 5 N/A N/A -24
19:00 N/A -17 84 -20 calm N/A N/A *
18:00 N/A -18 84 -20 W 4 N/A N/A -21
17:00 N/A -17 85 -19 NW 8 N/A N/A -23
16:00 N/A -16 83 -18 calm N/A N/A *
15:00 N/A -13 73 -17 NW 11 N/A N/A -19
14:00 N/A -13 69 -17 NW 14 N/A N/A -20
13:00 N/A -13 69 -17 NW 15 N/A N/A -20
12:00 N/A -14 70 -19 WNW 16 N/A N/A -22
11:00 N/A -15 70 -19 NW 14 N/A N/A -22
10:00 N/A -17 74 -20 WNW 12 N/A N/A -24
9:00 N/A -18 76 -21 NW 7 N/A N/A -23
8:00 N/A -20 82 -23 NW 11 N/A N/A -28
7:00 N/A -21   82 -23 WNW 8 N/A N/A -27
6:00 N/A -20 81 -23 W 5 N/A N/A -25
5:00 N/A -19 85 -20 NNW 7 N/A N/A -24
4:00 N/A -19 83 -21 NW 6 N/A N/A -24
3:00 N/A -19 83 -21 W 4 N/A N/A -23
2:00 N/A -18 82 -20 N 3 N/A N/A -20
1:00 N/A -17 86 -19 NW 7 N/A N/A -22
00:00 N/A -16 84 -18 calm N/A N/A *
26 November 2014
23:00 N/A -14 81 -17 NNW 9 N/A N/A -20
22:00 N/A -12   77 -15 NW 15 N/A N/A -19
N/A Not available
↑ Highest temperature
↓ Lowest temperature
* Value not significant.

If you require additional historical weather information, please visit Climate Data Online.

Date modified: